Latest Weather Observations for Meekatharra

IDW60801

Issued at 1:32 pm WST Saturday 28 May 2016 (issued every 30 minutes, with the page automatically refreshed every 10 minutes)

About weather observations | Map of weather stations | Latest weather observations for WA | Other Formats
Station Details ID: 007045 Name: MEEKATHARRA AIRPORT Lat: -26.61 Lon: 118.54 Height: 517.0 m
Data from the previous 72 hours. | See also: Recent months at Meekatharra
Date/Time
WST
Temp
°C
App
Temp
°C
Dew
Point
Rel
Hum
%
Delta-T
°C
Wind Press
QNH
hPa
Press
MSL
hPa
Rain
since 9 am
mm
Dir
 
Spd
km/h
Gust
km/h
Spd
kts
Gust
kts
28/01:30pm 21.2 16.7 4.4 33 8.4 SW 17 24 9 13 1016.1 - 0.0
28/01:00pm 22.0 15.8 4.5 32 8.8 SW 26 33 14 18 1016.2 - 0.0
28/12:30pm 21.7 17.5 5.7 35 8.2 SW 17 28 9 15 1016.5 - 0.0
28/12:00pm 20.8 16.5 7.0 40 7.2 SW 19 33 10 18 1016.9 1015.4 0.0
28/11:30am 21.2 17.4 7.6 41 7.2 WSW 17 20 9 11 1017.4 - 0.0
28/11:00am 20.9 17.7 8.4 44 6.7 SSW 15 22 8 12 1017.7 - 0.0
28/10:30am 20.2 16.6 8.2 46 6.4 SSW 17 20 9 11 1018.0 - 0.0
28/10:00am 19.8 16.1 8.1 46 6.2 S 17 20 9 11 1018.3 - 0.0
28/09:30am 18.8 15.4 7.7 48 5.8 SSW 15 19 8 10 1018.3 - 0.0
28/09:00am 18.0 16.3 9.9 59 4.4 WSW 9 13 5 7 1018.4 1016.8 0.0
28/08:30am 17.3 16.2 10.7 65 3.6 NW 7 11 4 6 1018.0 - 0.0
28/08:00am 16.1 16.4 11.0 72 2.8 CALM 0 6 0 3 1017.9 - 0.0
28/07:30am 14.9 14.7 10.6 75 2.3 WNW 2 7 1 4 1017.6 - 0.0
28/07:00am 12.4 11.1 9.9 85 1.3 N 7 9 4 5 1017.1 - 0.0
28/06:30am 12.6 10.5 9.7 82 1.5 N 11 11 6 6 1016.8 - 0.0
28/06:00am 12.7 10.9 9.6 81 1.6 N 9 11 5 6 1016.5 1014.9 0.0
28/05:30am 13.0 11.2 9.4 79 1.9 N 9 13 5 7 1016.5 - 0.0
28/05:00am 13.2 11.4 9.4 78 2.0 N 9 13 5 7 1016.5 - 0.0
28/04:30am 13.1 11.2 9.1 77 2.1 NNE 9 11 5 6 1016.4 - 0.0
28/04:00am 13.4 11.9 9.0 75 2.3 NNE 7 9 4 5 1016.5 - 0.0
28/03:30am 13.4 11.9 9.0 75 2.3 N 7 9 4 5 1016.5 - 0.0
28/03:00am 13.8 12.2 8.8 72 2.6 N 7 9 4 5 1016.6 1015.0 0.0
28/02:30am 14.1 12.0 8.3 68 3.0 N 9 13 5 7 1016.8 - 0.0
28/02:00am 14.4 11.9 8.2 66 3.2 NNE 11 13 6 7 1016.7 - 0.0
28/01:30am 14.8 12.3 8.0 64 3.5 NNE 11 13 6 7 1017.1 - 0.0
28/01:00am 14.6 12.4 8.0 64 3.4 NNE 9 11 5 6 1017.2 - 0.0
28/12:30am 14.8 12.6 7.7 62 3.6 NNE 9 11 5 6 1017.2 - 0.0
28/12:00am 15.3 13.0 7.4 59 4.0 NE 9 11 5 6 1017.5 1016.0 0.0
 
Date/Time
WST
Temp
°C
App
Temp
°C
Dew
Point
Rel
Hum
%
Delta-T
°C
Wind Press
QNH
hPa
Press
MSL
hPa
Rain
since 9 am
mm
Dir
 
Spd
km/h
Gust
km/h
Spd
kts
Gust
kts
27/11:30pm 15.9 13.6 7.3 56 4.4 NE 9 13 5 7 1017.8 - 0.0
27/11:00pm 16.2 14.2 7.2 55 4.6 NE 7 11 4 6 1017.9 - 0.0
27/10:30pm 16.8 14.4 7.2 53 4.9 NNE 9 9 5 5 1018.3 - 0.0
27/10:00pm 17.3 14.9 7.2 51 5.2 NNE 9 11 5 6 1018.5 - 0.0
27/09:30pm 17.7 15.0 7.2 50 5.4 ENE 11 13 6 7 1018.4 - 0.0
27/09:00pm 18.4 16.1 7.4 48 5.7 ENE 9 13 5 7 1018.7 1017.2 0.0
27/08:30pm 18.3 16.6 8.5 52 5.2 ENE 7 9 4 5 1018.7 - 0.0
27/08:00pm 18.8 18.5 8.7 52 5.4 CALM 0 0 0 0 1018.6 - 0.0
27/07:30pm 19.0 19.0 9.8 55 5.0 CALM 0 0 0 0 1018.6 - 0.0
27/07:00pm 19.2 19.0 8.9 51 5.5 CALM 0 4 0 2 1018.6 - 0.0
27/06:30pm 19.7 18.3 8.7 49 5.9 N 6 7 3 4 1018.4 - 0.0
27/06:00pm 20.5 18.5 7.1 42 7.0 N 7 11 4 6 1018.2 1016.6 0.0
27/05:30pm 21.2 18.3 6.3 38 7.7 NNE 11 15 6 8 1017.8 - 0.0
27/05:00pm 21.8 18.0 5.9 35 8.2 NNE 15 20 8 11 1017.6 - 0.0
27/04:30pm 22.5 18.2 5.3 32 8.8 N 17 24 9 13 1017.7 - 0.0
27/04:00pm 22.6 17.7 4.3 30 9.2 N 19 24 10 13 1017.8 - 0.0
27/03:30pm 22.6 18.1 4.0 29 9.3 N 17 24 9 13 1017.9 - 0.0
27/03:00pm 23.5 19.8 4.6 29 9.6 NE 13 19 7 10 1017.8 1016.3 0.0
27/02:30pm 22.6 17.8 4.9 31 9.0 N 19 28 10 15 1018.3 - 0.0
27/02:00pm 22.1 18.0 6.3 36 8.2 NNE 17 26 9 14 1018.5 - 0.0
27/01:30pm 22.0 17.9 6.4 36 8.1 NE 17 30 9 16 1018.8 - 0.0
27/01:00pm 22.7 18.7 6.7 35 8.4 NNE 17 22 9 12 1019.2 - 0.0
27/12:30pm 21.4 17.9 7.1 39 7.5 ENE 15 26 8 14 1019.8 - 0.0
27/12:00pm 20.4 16.1 7.2 42 6.9 NNE 19 30 10 16 1020.4 1018.9 0.0
27/11:30am 20.0 15.8 7.4 44 6.6 NE 19 30 10 16 1020.9 - 0.0
27/11:00am 19.4 14.1 7.0 44 6.4 ENE 24 35 13 19 1021.2 - 0.0
27/10:30am 18.8 13.1 6.9 46 6.1 ENE 26 39 14 21 1021.5 - 0.0
27/10:00am 18.0 13.0 8.1 52 5.2 ENE 24 32 13 17 1021.9 - 0.0
27/09:30am 16.8 11.4 8.1 56 4.5 ENE 26 35 14 19 1022.0 - 0.0
27/09:00am 16.3 11.4 8.4 59 4.1 E 24 32 13 17 1022.5 1021.0 0.2
27/08:30am 15.3 11.3 9.0 66 3.3 E 20 32 11 17 1022.6 - 0.2
27/08:00am 14.4 10.4 9.2 71 2.7 E 20 28 11 15 1022.3 - 0.2
27/07:30am 14.1 10.7 9.3 73 2.5 E 17 24 9 13 1021.9 - 0.2
27/07:00am 14.0 10.2 9.2 73 2.5 E 19 26 10 14 1021.7 - 0.2
27/06:30am 14.1 10.7 9.1 72 2.6 ESE 17 24 9 13 1021.6 - 0.2
27/06:00am 13.9 10.1 9.9 77 2.1 E 20 26 11 14 1021.5 1020.0 0.2
27/05:30am 13.7 10.0 10.3 80 1.8 ESE 20 32 11 17 1021.4 - 0.2
27/05:00am 13.7 10.4 10.9 83 1.5 SE 19 28 10 15 1021.8 - 0.2
27/04:30am 13.6 10.2 11.2 85 1.3 SSE 20 28 11 15 1021.4 - 0.2
27/04:00am 14.1 12.0 11.2 83 1.6 SSE 13 17 7 9 1021.6 - 0.2
27/03:30am 14.4 12.1 10.5 77 2.1 ESE 13 17 7 9 1021.4 - 0.2
27/03:00am 14.4 12.5 10.5 77 2.1 ESE 11 13 6 7 1021.8 1020.3 0.2
27/02:30am 14.3 11.2 10.4 77 2.1 E 17 24 9 13 1021.0 - 0.2
27/02:00am 14.5 11.8 10.4 76 2.2 E 15 19 8 10 1021.6 - 0.0
27/01:30am 14.4 11.7 10.3 76 2.2 E 15 26 8 14 1021.5 - 0.0
27/01:00am 14.4 11.4 10.5 77 2.1 ESE 17 26 9 14 1021.6 - 0.0
27/12:30am 14.3 11.6 11.8 85 1.4 SE 17 22 9 12 1022.0 - 0.0
27/12:00am 14.8 11.6 11.3 79 1.9 SSE 19 26 10 14 1023.1 1021.6 0.0
 
Date/Time
WST
Temp
°C
App
Temp
°C
Dew
Point
Rel
Hum
%
Delta-T
°C
Wind Press
QNH
hPa
Press
MSL
hPa
Rain
since 9 am
mm
Dir
 
Spd
km/h
Gust
km/h
Spd
kts
Gust
kts
26/11:30pm 15.4 12.0 10.6 73 2.6 SSE 19 24 10 13 1023.5 - 0.0
26/11:00pm 15.6 12.5 10.4 71 2.8 SSE 17 24 9 13 1022.7 - 0.0
26/10:30pm 15.7 12.2 10.1 69 3.0 SSE 19 24 10 13 1022.5 - 0.0
26/10:00pm 15.9 12.1 9.9 67 3.2 SSE 20 32 11 17 1022.1 - 0.0
26/09:30pm 16.2 12.7 10.1 67 3.3 SSE 19 24 10 13 1022.4 - 0.0
26/09:00pm 16.4 13.2 10.1 66 3.4 SSE 17 26 9 14 1022.4 1020.9 0.0
26/08:30pm 16.7 13.1 9.8 63 3.7 SSE 19 32 10 17 1022.4 - 0.0
26/08:00pm 16.9 12.3 9.6 62 3.9 S 24 32 13 17 1021.9 - 0.0
26/07:30pm 17.4 13.8 10.0 62 4.0 S 19 24 10 13 1021.7 - 0.0
26/07:00pm 17.7 13.9 9.9 60 4.2 S 20 26 11 14 1021.2 - 0.0
26/06:30pm 18.2 14.3 9.5 57 4.7 S 20 24 11 13 1020.9 - 0.0
26/06:00pm 18.4 15.5 8.1 51 5.4 SSE 13 20 7 11 1019.8 1018.3 0.0
26/05:30pm 18.6 14.8 7.4 48 5.8 S 17 24 9 13 1019.8 - 0.0
26/05:00pm 19.0 15.7 8.0 49 5.8 SSE 15 20 8 11 1019.6 - 0.0
26/04:30pm 19.5 15.4 7.7 46 6.2 SSE 19 24 10 13 1019.4 - 0.0
26/04:00pm 20.0 16.3 7.9 45 6.4 S 17 24 9 13 1019.2 - 0.0
26/03:30pm 20.2 16.1 7.7 44 6.6 SSE 19 22 10 12 1018.8 - 0.0
26/03:00pm 20.5 16.3 8.3 45 6.5 S 20 26 11 14 1019.0 1017.5 0.0
26/02:30pm 21.2 17.0 7.6 41 7.2 S 19 32 10 17 1018.5 - 0.0
26/02:00pm 20.3 16.4 7.3 43 6.8 SE 17 28 9 15 1018.3 - 0.0
26/01:30pm 20.9 16.7 7.4 41 7.1 S 19 30 10 16 1018.7 - 0.0
26/01:00pm 20.1 15.8 8.0 45 6.4 S 20 32 11 17 1019.1 - 0.0
26/12:30pm 19.0 14.9 8.7 51 5.5 SSW 20 28 11 15 1019.4 - 0.0
26/12:00pm 18.9 15.3 9.9 56 4.9 SSW 19 32 10 17 1019.3 1017.8 0.0
26/11:30am 18.7 15.3 9.2 54 5.1 S 17 22 9 12 1020.2 - 0.0
26/11:00am 18.1 14.6 10.2 60 4.3 SSW 19 26 10 14 1020.0 - 0.0
26/10:30am 18.5 15.1 10.5 59 4.4 S 19 28 10 15 1020.3 - 0.0
26/10:00am 17.3 14.3 11.8 70 3.1 SSW 19 24 10 13 1020.4 - 0.0
26/09:28am 16.6 15.0 12.9 79 2.1 SSW 13 17 7 9 1019.9 - 0.0
26/09:00am 15.5 13.2 13.0 85 1.4 SSW 17 22 9 12 1020.3 1018.8 0.2
26/08:30am 15.2 13.4 13.4 89 1.0 SSW 15 20 8 11 1019.3 - 0.2
26/08:00am 15.0 13.8 14.0 94 0.6 SW 13 19 7 10 1018.9 - 0.2
26/07:30am 14.6 13.4 13.9 96 0.4 WSW 13 19 7 10 1018.0 - 0.2
26/07:00am 14.6 14.6 14.1 97 0.3 SW 7 11 4 6 1017.8 - 0.2
26/06:47am 14.5 14.4 14.0 97 0.3 WSW 7 9 4 5 1017.6 - 0.2
26/06:30am 14.5 14.5 14.2 98 0.2 SW 7 11 4 6 1017.1 - 0.2
26/06:00am 14.5 14.1 14.2 98 0.2 WSW 9 11 5 6 1017.3 1015.8 0.2
26/05:30am 14.8 14.8 14.1 96 0.4 W 7 11 4 6 1016.8 - 0.2
26/05:10am 15.0 14.3 14.3 96 0.4 W 11 17 6 9 1016.5 - 0.2
26/05:00am 15.1 14.4 14.2 94 0.5 WSW 11 17 6 9 1016.6 - 0.2
26/04:59am 15.1 14.4 14.2 94 0.5 WSW 11 15 6 8 1016.6 - 0.2
26/04:30am 15.3 14.2 14.3 94 0.6 W 13 17 7 9 1016.4 - 0.2
26/04:00am 15.1 14.7 14.1 94 0.6 W 9 11 5 6 1016.4 - 0.2
26/03:30am 15.0 14.1 13.8 92 0.7 W 11 15 6 8 1016.1 - 0.2
26/03:00am 15.2 14.4 14.0 92 0.7 WNW 11 15 6 8 1015.4 1013.9 0.2
26/02:30am 15.4 14.3 14.4 94 0.6 W 13 17 7 9 1015.7 - 0.2
26/02:00am 15.8 14.9 14.8 94 0.6 W 13 19 7 10 1015.5 - 0.2
26/01:30am 15.9 15.9 15.1 95 0.5 WNW 9 13 5 7 1015.5 - 0.2
26/01:00am 15.9 15.9 15.1 95 0.5 NW 9 11 5 6 1015.5 - 0.0
26/12:30am 15.8 15.8 15.1 96 0.4 NNW 9 11 5 6 1015.3 - 0.0
26/12:00am 16.0 16.1 15.5 97 0.3 N 9 11 5 6 1015.2 1013.7 0.0
 
Date/Time
WST
Temp
°C
App
Temp
°C
Dew
Point
Rel
Hum
%
Delta-T
°C
Wind Press
QNH
hPa
Press
MSL
hPa
Rain
since 9 am
mm
Dir
 
Spd
km/h
Gust
km/h
Spd
kts
Gust
kts
25/11:30pm 16.1 17.8 15.3 95 0.5 CALM 0 0 0 0 1015.8 - 0.0
25/11:00pm 16.4 17.9 15.6 95 0.5 NNE 2 6 1 3 1016.4 - 0.0
25/10:30pm 16.6 17.3 15.6 94 0.6 NNE 6 7 3 4 1016.3 - 0.0
25/10:00pm 16.5 17.1 15.3 93 0.7 NNE 6 7 3 4 1016.1 - 0.0
25/09:30pm 16.5 17.1 15.2 92 0.8 NNE 6 7 3 4 1016.2 - 0.0
25/09:00pm 16.8 17.1 14.9 88 1.1 NE 7 9 4 5 1016.1 1014.5 0.0
25/08:30pm 16.7 18.4 15.2 91 0.9 CALM 0 0 0 0 1015.7 - 0.0
25/08:00pm 16.5 18.2 15.2 92 0.8 CALM 0 4 0 2 1015.7 - 0.0
25/07:30pm 16.7 17.1 15.2 91 0.9 SSE 7 11 4 6 1015.5 - 0.0
25/07:00pm 17.1 17.1 15.3 89 1.1 S 9 9 5 5 1015.5 - 0.0
25/06:30pm 17.4 17.8 15.4 88 1.2 S 7 9 4 5 1015.4 - 0.0
25/06:00pm 17.3 18.0 15.5 89 1.1 S 6 7 3 4 1015.0 1013.4 0.0
25/05:30pm 17.3 17.5 15.8 91 0.9 S 9 11 5 6 1014.9 - 0.0
25/05:22pm 17.3 18.0 16.1 93 0.7 S 7 11 4 6 1014.9 - 0.0
25/05:00pm 17.2 17.5 15.9 92 0.8 SSW 9 11 5 6 1014.7 - 0.0
25/04:59pm 17.3 17.5 15.8 91 0.9 S 9 11 5 6 1014.8 - 0.0
25/04:57pm 17.3 17.6 16.0 92 0.8 S 9 11 5 6 1014.8 - 0.0
25/04:47pm 17.5 18.2 16.2 92 0.8 S 7 11 4 6 1014.6 - 0.0
25/04:33pm 17.3 18.0 16.0 92 0.8 S 7 11 4 6 1014.5 - 0.0
25/04:30pm 17.5 18.2 16.2 92 0.8 S 7 11 4 6 1014.5 - 0.0
25/04:28pm 17.4 17.7 16.1 92 0.8 S 9 11 5 6 1014.5 - 0.0
25/04:19pm 17.5 17.9 16.2 92 0.8 S 9 11 5 6 1014.4 - 0.0
25/04:07pm 17.5 18.3 16.4 93 0.7 SSW 7 11 4 6 1014.4 - 0.0
25/04:00pm 17.5 18.4 16.5 94 0.6 SW 7 11 4 6 1014.3 - 0.0
25/03:35pm 18.3 17.8 15.8 85 1.5 S 13 15 7 8 1014.1 - 0.0
25/03:00pm 19.1 18.1 14.7 75 2.6 S 13 17 7 9 1013.6 1012.1 0.0
25/02:30pm 19.2 18.9 14.5 74 2.8 SSE 9 17 5 9 1013.5 - 0.0
25/02:00pm 18.6 18.1 14.9 79 2.2 SSE 11 17 6 9 1013.5 - 0.0
25/01:44pm 18.3 17.2 14.4 78 2.3 SE 13 19 7 10 1013.6 - 0.0

Other Formats:

Comma delimited format used in spreadsheet applications
http://www.bom.gov.au/fwo/IDW60801/IDW60801.94430.axf

JavaScript Object Notation format (JSON) in row-major order
http://www.bom.gov.au/fwo/IDW60801/IDW60801.94430.json